Reynosa, Mexico

11:48 AM EST on August 27, 2016 (GMT -0500)
APRSWXNET | | Change Station

Elev 321 ft 26.16 °N, 98.28 °W | Updated 14 minutes ago

Scattered Clouds
Scattered Clouds
89 °F
Feels Like 99 °F
N
1
Wind Variable Wind from ENE
Gusts 0.0 mph

Today
High -- | Low -- °F
--% Chance of Precip.
Yesterday
High -- | Low -- °F
Precip. -- in
Pressure 29.97 in
Visibility 10.0 miles
Clouds Scattered Clouds 2700 ft
Heat Index 99 °F
Dew Point 75 °F
Humidity 64%
Rainfall in
Snow Depth Not available.
7:11 AM 7:56 PM
Waning Crescent, 23% visible
METAR KMFE 271553Z 00000KT 10SM SCT027 32/23 A2997 RMK AO2 SLP147 T03220233
Pressure 29.97 in
Visibility 10.0 miles
Clouds Scattered Clouds 2700 ft
Heat Index 99 °F
Dew Point 75 °F
Humidity 64%
Rainfall in
Snow Depth Not available.
7:11 AM 7:56 PM
Waning Crescent, 23% visible
METAR KMFE 271553Z 00000KT 10SM SCT027 32/23 A2997 RMK AO2 SLP147 T03220233

10-Day Weather Forecast

Almanac

Astronomy

Aug. 27, 2016 Rise Set
Actual Time
Civil Twilight
Nautical Twilight
Astronomical Twilight
Moon
Length of Visible Light
Length of Day
Tomorrow will be .
, % of the Moon is Illuminated

Today's Extremes

Country Highs Country Lows

Community

WunderPhotos

Upload Photos

1,935,377 photos uploaded!

WunderBlog® & News

Nearby

Air Quality

  Air Quality AQ Index Pollutant
Not available.

Snow Depth

Station Depth Elevation

Earthquake Activity

City Distance Mag. Time & Date
Minimum magnitude displayed is 2.5.

Coastal Water Temperatures

Place Temperature

Stations

Nearby Weather Stations

Station Location Temp. Windchill Dew Point Humidity Wind Precip. Elev Updated Type